createdAt,value
2022-08-14T00:00:15.641Z,0.00
2022-08-14T00:01:15.674Z,0.00
2022-08-14T00:02:15.757Z,0.00
2022-08-14T00:03:15.728Z,0.00
2022-08-14T00:04:34.853Z,0.00
2022-08-14T00:05:15.793Z,0.00
2022-08-14T00:06:25.577Z,0.00
2022-08-14T00:07:15.850Z,0.00
2022-08-14T00:08:15.899Z,0.00
2022-08-14T00:09:15.910Z,0.00
2022-08-14T00:10:51.586Z,0.00
2022-08-14T00:11:15.971Z,0.00
2022-08-14T00:12:24.466Z,0.00
2022-08-14T00:13:16.031Z,0.00
2022-08-14T00:14:17.300Z,0.00
2022-08-14T00:15:16.097Z,0.00
2022-08-14T00:16:40.376Z,0.00
2022-08-14T00:17:16.154Z,0.00
2022-08-14T00:18:30.810Z,0.00
2022-08-14T00:19:21.203Z,0.00
2022-08-14T00:20:16.245Z,0.00
2022-08-14T00:21:16.291Z,0.00
2022-08-14T00:22:44.100Z,0.00
2022-08-14T00:23:16.776Z,0.00
2022-08-14T00:24:28.467Z,0.00
2022-08-14T00:25:16.397Z,0.00
2022-08-14T00:26:21.921Z,0.00
2022-08-14T00:27:16.459Z,0.00
2022-08-14T00:28:17.798Z,0.00
2022-08-14T00:29:16.514Z,0.00
2022-08-14T00:30:17.453Z,0.00
2022-08-14T00:31:16.575Z,0.00
2022-08-14T00:32:52.559Z,0.00
2022-08-14T00:33:16.918Z,0.00
2022-08-14T00:34:37.124Z,0.00
2022-08-14T00:35:16.695Z,0.00
2022-08-14T00:36:36.073Z,0.00
2022-08-14T00:37:16.775Z,0.00
2022-08-14T00:38:16.781Z,0.00
2022-08-14T00:39:18.056Z,0.00
2022-08-14T00:40:33.113Z,0.00
2022-08-14T00:41:16.874Z,0.00
2022-08-14T00:42:52.473Z,0.00
2022-08-14T00:43:16.935Z,0.00
2022-08-14T00:44:27.526Z,0.00
2022-08-14T00:45:16.991Z,0.00
2022-08-14T00:46:32.238Z,0.00
2022-08-14T00:47:17.054Z,0.00
2022-08-14T00:48:33.902Z,0.00
2022-08-14T00:49:17.113Z,0.00
2022-08-14T00:50:17.875Z,0.00
2022-08-14T00:51:17.173Z,0.00
2022-08-14T00:52:18.225Z,0.00
2022-08-14T00:53:17.232Z,0.00
2022-08-14T00:54:22.072Z,0.00
2022-08-14T00:55:17.291Z,0.00
2022-08-14T00:56:17.320Z,0.00
2022-08-14T00:57:17.352Z,0.00
2022-08-14T00:58:17.380Z,0.00
2022-08-14T00:59:17.409Z,0.00
2022-08-14T01:00:34.156Z,0.00
2022-08-14T01:01:17.506Z,0.00
2022-08-14T01:02:17.500Z,0.00
2022-08-14T01:03:17.533Z,0.00
2022-08-14T01:04:51.352Z,0.00
2022-08-14T01:05:17.587Z,0.00
2022-08-14T01:06:18.687Z,0.00
2022-08-14T01:07:17.649Z,0.00
2022-08-14T01:08:20.616Z,0.00
2022-08-14T01:09:17.708Z,0.00
2022-08-14T01:10:17.738Z,0.00
2022-08-14T01:11:19.536Z,0.00
2022-08-14T01:12:26.890Z,0.00
2022-08-14T01:13:17.827Z,0.00
2022-08-14T01:14:25.250Z,0.00
2022-08-14T01:15:17.884Z,0.00
2022-08-14T01:16:19.420Z,0.00
2022-08-14T01:17:17.946Z,0.00
2022-08-14T01:18:17.973Z,0.00
2022-08-14T01:19:19.537Z,0.00
2022-08-14T01:20:27.607Z,0.00
2022-08-14T01:21:18.065Z,0.00
2022-08-14T01:22:18.932Z,0.00
2022-08-14T01:23:18.753Z,0.00
2022-08-14T01:24:22.873Z,0.00
2022-08-14T01:25:18.179Z,0.00
2022-08-14T01:26:34.427Z,0.00
2022-08-14T01:27:18.249Z,0.00
2022-08-14T01:28:47.158Z,0.00
2022-08-14T01:29:18.298Z,0.00
2022-08-14T01:30:20.892Z,0.00
2022-08-14T01:31:18.358Z,0.00
2022-08-14T01:32:23.244Z,0.00
2022-08-14T01:33:18.418Z,0.00
2022-08-14T01:35:18.128Z,0.00
2022-08-14T01:36:04.337Z,0.00
2022-08-14T01:36:21.079Z,0.00
2022-08-14T01:37:18.534Z,0.00
2022-08-14T01:38:18.559Z,0.00
2022-08-14T01:39:18.634Z,0.00
2022-08-14T01:40:20.004Z,0.00
2022-08-14T01:41:18.653Z,0.00
2022-08-14T01:42:31.558Z,0.00
2022-08-14T01:43:22.203Z,0.00
2022-08-14T01:44:33.210Z,0.00
2022-08-14T01:45:25.635Z,0.00
2022-08-14T01:46:24.320Z,0.00
2022-08-14T01:47:22.175Z,0.00
2022-08-14T01:48:20.656Z,0.00
2022-08-14T01:49:18.886Z,0.00
2022-08-14T01:50:18.918Z,0.00
2022-08-14T01:51:20.054Z,0.00
2022-08-14T01:52:34.612Z,0.00
2022-08-14T01:53:19.005Z,0.00
2022-08-14T01:54:19.034Z,0.00
2022-08-14T01:55:19.064Z,0.00
2022-08-14T01:56:19.093Z,0.00
2022-08-14T01:57:19.122Z,0.00
2022-08-14T01:58:24.663Z,0.00
2022-08-14T01:59:19.184Z,0.00
2022-08-14T02:00:19.212Z,0.00
2022-08-14T02:01:19.260Z,0.00
2022-08-14T02:02:19.769Z,0.00
2022-08-14T02:03:19.299Z,0.00
2022-08-14T02:04:40.495Z,0.00
2022-08-14T02:05:19.358Z,0.00
2022-08-14T02:06:32.830Z,0.00
2022-08-14T02:07:34.235Z,0.00
2022-08-14T02:08:22.560Z,0.00
2022-08-14T02:09:22.501Z,0.00
2022-08-14T02:10:19.504Z,0.00
2022-08-14T02:11:20.234Z,0.00
2022-08-14T02:12:26.573Z,0.00
2022-08-14T02:13:19.840Z,0.00
2022-08-14T02:14:31.378Z,0.00
2022-08-14T02:15:19.650Z,0.00
2022-08-14T02:16:22.277Z,0.00
2022-08-14T02:17:19.708Z,0.00
2022-08-14T02:18:19.735Z,0.00
2022-08-14T02:19:19.764Z,0.00
2022-08-14T02:20:23.420Z,0.00
2022-08-14T02:21:23.197Z,0.00
2022-08-14T02:22:32.680Z,0.00
2022-08-14T02:23:27.770Z,0.00
2022-08-14T02:24:40.439Z,0.00
2022-08-14T02:25:19.937Z,0.00
2022-08-14T02:26:24.963Z,0.00
2022-08-14T02:28:26.102Z,0.00
2022-08-14T02:28:56.085Z,0.00
2022-08-14T02:29:20.057Z,0.00
2022-08-14T02:30:20.089Z,0.00
2022-08-14T02:31:20.114Z,0.00
2022-08-14T02:32:36.336Z,0.00
2022-08-14T02:33:20.176Z,0.00
2022-08-14T02:34:26.189Z,0.00
2022-08-14T02:35:21.846Z,0.00
2022-08-14T02:37:04.987Z,0.00
2022-08-14T02:37:20.317Z,0.00
2022-08-14T02:38:29.492Z,0.00
2022-08-14T02:39:20.449Z,0.00
2022-08-14T02:40:20.378Z,0.00
2022-08-14T02:41:20.405Z,0.00
2022-08-14T02:42:23.638Z,0.00
2022-08-14T02:43:22.533Z,0.00
2022-08-14T02:44:29.646Z,0.00
2022-08-14T02:45:20.521Z,0.00
2022-08-14T02:46:24.495Z,0.00
2022-08-14T02:47:21.262Z,0.00
2022-08-14T02:49:02.630Z,0.00
2022-08-14T02:49:20.632Z,0.00
2022-08-14T02:50:20.664Z,0.00
2022-08-14T02:51:20.691Z,0.00
2022-08-14T02:52:55.441Z,0.00
2022-08-14T02:53:20.750Z,0.00
2022-08-14T02:54:20.784Z,0.00
2022-08-14T02:55:20.810Z,0.00
2022-08-14T02:56:30.383Z,0.00
2022-08-14T02:57:39.303Z,0.00
2022-08-14T02:58:21.438Z,0.00
2022-08-14T02:59:21.096Z,0.00
2022-08-14T03:00:20.953Z,0.00
2022-08-14T03:01:21.006Z,0.00
2022-08-14T03:02:48.861Z,0.00
2022-08-14T03:03:21.038Z,0.00
2022-08-14T03:04:21.066Z,0.00
2022-08-14T03:05:21.096Z,0.00
2022-08-14T03:06:34.918Z,0.00
2022-08-14T03:07:21.151Z,0.00
2022-08-14T03:08:21.186Z,0.00
2022-08-14T03:09:21.208Z,0.00
2022-08-14T03:10:27.555Z,0.00
2022-08-14T03:11:21.267Z,0.00
2022-08-14T03:12:31.204Z,0.00
2022-08-14T03:13:22.015Z,0.00
2022-08-14T03:14:21.353Z,0.00
2022-08-14T03:15:21.381Z,0.00
2022-08-14T03:16:26.895Z,0.00
2022-08-14T03:17:21.437Z,0.00
2022-08-14T03:18:21.465Z,0.00
2022-08-14T03:19:21.498Z,0.00
2022-08-14T03:20:22.347Z,0.00
2022-08-14T03:21:21.601Z,0.00
2022-08-14T03:22:21.580Z,0.00
2022-08-14T03:23:21.608Z,0.00
2022-08-14T03:24:23.228Z,0.00
2022-08-14T03:25:21.671Z,0.00
2022-08-14T03:26:29.727Z,0.00
2022-08-14T03:27:21.720Z,0.00
2022-08-14T03:28:29.497Z,0.00
2022-08-14T03:29:21.778Z,0.00
2022-08-14T03:30:23.407Z,0.00
2022-08-14T03:31:21.832Z,4.00
2022-08-14T03:32:30.256Z,4.00
2022-08-14T03:33:21.893Z,0.00
2022-08-14T03:34:24.330Z,4.00
2022-08-14T03:35:21.949Z,4.00
2022-08-14T03:37:38.206Z,4.00
2022-08-14T03:37:51.892Z,0.00
2022-08-14T03:39:14.270Z,4.00
2022-08-14T03:39:24.356Z,8.00
2022-08-14T03:40:22.091Z,8.00
2022-08-14T03:41:22.951Z,8.00
2022-08-14T03:42:22.151Z,8.00
2022-08-14T03:43:22.176Z,12.00
2022-08-14T03:45:19.256Z,12.00
2022-08-14T03:45:34.442Z,12.00
2022-08-14T03:46:52.405Z,16.00
2022-08-14T03:47:22.291Z,20.00
2022-08-14T03:48:30.216Z,24.00
2022-08-14T03:49:24.252Z,28.00
2022-08-14T03:50:27.555Z,32.00
2022-08-14T03:51:22.402Z,36.00
2022-08-14T03:52:38.967Z,40.00
2022-08-14T03:53:22.455Z,48.00
2022-08-14T03:54:22.485Z,52.00
2022-08-14T03:55:22.516Z,60.00
2022-08-14T03:56:22.542Z,68.00
2022-08-14T03:57:22.927Z,80.00
2022-08-14T03:58:23.667Z,84.00
2022-08-14T03:59:22.632Z,96.00
2022-08-14T04:00:40.684Z,108.00
2022-08-14T04:01:22.750Z,120.00
2022-08-14T04:02:46.852Z,136.00
2022-08-14T04:03:24.099Z,152.00
2022-08-14T04:04:22.765Z,160.00
2022-08-14T04:05:22.798Z,172.00
2022-08-14T04:06:22.825Z,192.00
2022-08-14T04:07:22.855Z,208.00
2022-08-14T04:08:30.981Z,232.00
2022-08-14T04:09:22.908Z,256.00
2022-08-14T04:10:26.303Z,280.00
2022-08-14T04:11:22.972Z,300.00
2022-08-14T04:12:26.188Z,324.00
2022-08-14T04:13:23.920Z,364.00
2022-08-14T04:14:23.550Z,416.00
2022-08-14T04:15:23.538Z,468.00
2022-08-14T04:16:23.114Z,508.00
2022-08-14T04:17:23.140Z,548.00
2022-08-14T04:18:23.169Z,592.00
2022-08-14T04:19:23.195Z,632.00
2022-08-14T04:20:25.566Z,680.00
2022-08-14T04:21:23.256Z,728.00
2022-08-14T04:22:23.285Z,784.00
2022-08-14T04:23:29.858Z,844.00
2022-08-14T04:24:23.340Z,908.00
2022-08-14T04:25:23.363Z,972.00
2022-08-14T04:26:27.286Z,1036.00
2022-08-14T04:27:23.425Z,1092.00
2022-08-14T04:29:09.146Z,1148.00
2022-08-14T04:29:23.482Z,1208.00
2022-08-14T04:30:30.896Z,1268.00
2022-08-14T04:32:56.336Z,1328.00
2022-08-14T04:33:01.605Z,1392.00
2022-08-14T04:33:23.861Z,1460.00
2022-08-14T04:34:24.164Z,1532.00
2022-08-14T04:35:23.802Z,1608.00
2022-08-14T04:36:24.033Z,1684.00
2022-08-14T04:37:24.987Z,1760.00
2022-08-14T04:38:36.425Z,1828.00
2022-08-14T04:39:23.834Z,1900.00
2022-08-14T04:40:30.965Z,1972.00
2022-08-14T04:42:28.289Z,2124.00
2022-08-14T04:43:38.367Z,2180.00
2022-08-14T04:45:32.343Z,2288.00
2022-08-14T04:46:55.623Z,2340.00
2022-08-14T04:48:41.052Z,2424.00
2022-08-14T04:49:38.458Z,2448.00
2022-08-14T04:51:46.610Z,2484.00
2022-08-14T04:52:40.024Z,2484.00
2022-08-14T04:54:44.484Z,2480.00
2022-08-14T04:55:44.042Z,2484.00
2022-08-14T04:57:36.995Z,2500.00
2022-08-14T04:58:37.010Z,2520.00
2022-08-14T05:00:41.542Z,2600.00
2022-08-14T05:01:41.117Z,2640.00
2022-08-14T05:03:45.086Z,2716.00
2022-08-14T05:04:58.581Z,2748.00
2022-08-14T05:06:54.298Z,2816.00
2022-08-14T05:08:01.298Z,2860.00
2022-08-14T05:09:53.724Z,2952.00
2022-08-14T05:10:53.218Z,3132.00
2022-08-14T05:13:13.680Z,3128.00
2022-08-14T05:14:42.850Z,3284.00
2022-08-14T05:16:02.750Z,3188.00
2022-08-14T05:17:02.458Z,3240.00
2022-08-14T05:19:18.018Z,3268.00
2022-08-14T05:21:54.069Z,3320.00
2022-08-14T05:22:17.519Z,3436.00
2022-08-14T05:23:11.196Z,3432.00
2022-08-14T05:25:14.995Z,3664.00
2022-08-14T05:26:14.460Z,3552.00
2022-08-14T05:28:18.493Z,3636.00
2022-08-14T05:29:18.512Z,3672.00
2022-08-14T05:31:23.003Z,3832.00
2022-08-14T05:32:22.848Z,3948.00
2022-08-14T05:34:28.852Z,4076.00
2022-08-14T05:35:26.602Z,3892.00
2022-08-14T05:37:20.091Z,4040.00
2022-08-14T05:38:22.471Z,4172.00
2022-08-14T05:40:23.599Z,4156.00
2022-08-14T05:41:23.622Z,4132.00
2022-08-14T05:43:40.866Z,4132.00
2022-08-14T05:44:30.167Z,4164.00
2022-08-14T05:46:31.700Z,4216.00
2022-08-14T05:47:38.837Z,4532.00
2022-08-14T05:49:36.221Z,5224.00
2022-08-14T05:50:35.768Z,4520.00
2022-08-14T05:52:39.802Z,4408.00
2022-08-14T05:53:42.345Z,4436.00
2022-08-14T05:55:44.903Z,4460.00
2022-08-14T05:56:43.866Z,4472.00
2022-08-14T05:58:47.893Z,4616.00
2022-08-14T05:59:47.912Z,4628.00
2022-08-14T06:01:52.473Z,4724.00
2022-08-14T06:02:51.964Z,4796.00
2022-08-14T06:04:58.845Z,4836.00
2022-08-14T06:05:56.015Z,4872.00
2022-08-14T06:07:48.970Z,5256.00
2022-08-14T06:08:48.981Z,7100.00
2022-08-14T06:10:53.486Z,21152.00
2022-08-14T06:11:53.036Z,29248.00
2022-08-14T06:13:57.063Z,25920.00
2022-08-14T06:14:57.083Z,26016.00
2022-08-14T06:17:01.590Z,27712.00
2022-08-14T06:18:01.770Z,27424.00
2022-08-14T06:20:05.180Z,25312.00
2022-08-14T06:21:05.201Z,26176.00
2022-08-14T06:23:09.698Z,26592.00
2022-08-14T06:24:10.620Z,25824.00
2022-08-14T06:26:13.286Z,25696.00
2022-08-14T06:27:13.309Z,26944.00
2022-08-14T06:29:17.807Z,26208.00
2022-08-14T06:30:17.368Z,27904.00
2022-08-14T06:32:37.419Z,29536.00
2022-08-14T06:33:21.429Z,29408.00
2022-08-14T06:35:26.437Z,29952.00
2022-08-14T06:36:25.488Z,29376.00
2022-08-14T06:38:29.525Z,31104.00
2022-08-14T06:39:36.331Z,31776.00
2022-08-14T06:41:57.126Z,30560.00
2022-08-14T06:42:33.613Z,30368.00
2022-08-14T06:44:38.119Z,31072.00
2022-08-14T06:45:37.676Z,30816.00
2022-08-14T06:47:30.646Z,30976.00
2022-08-14T06:48:32.613Z,31168.00
2022-08-14T06:50:35.165Z,32480.00
2022-08-14T06:51:38.679Z,33664.00
2022-08-14T06:53:38.761Z,34176.00
2022-08-14T06:54:38.793Z,34144.00
2022-08-14T06:56:44.444Z,34368.00
2022-08-14T06:57:42.857Z,34400.00
2022-08-14T06:59:47.359Z,36256.00
2022-08-14T07:00:46.922Z,36832.00
2022-08-14T07:02:50.966Z,36928.00
2022-08-14T07:03:50.989Z,38272.00
2022-08-14T07:05:58.404Z,38240.00
2022-08-14T07:06:58.431Z,34464.00
2022-08-14T07:08:59.104Z,6236.00
2022-08-14T07:09:59.129Z,5484.00
2022-08-14T07:12:05.134Z,5212.00
2022-08-14T07:13:04.315Z,5196.00
2022-08-14T07:15:07.246Z,5196.00
2022-08-14T07:16:07.263Z,5192.00
2022-08-14T07:18:11.772Z,5228.00
2022-08-14T07:19:11.334Z,5248.00
2022-08-14T07:21:15.835Z,5264.00
2022-08-14T07:22:17.545Z,5264.00
2022-08-14T07:24:26.324Z,5292.00
2022-08-14T07:25:19.463Z,5288.00
2022-08-14T07:27:12.952Z,5276.00
2022-08-14T07:28:12.979Z,5284.00
2022-08-14T07:30:33.979Z,5292.00
2022-08-14T07:31:16.588Z,5288.00
2022-08-14T07:33:29.238Z,5240.00
2022-08-14T07:34:26.318Z,5192.00
2022-08-14T07:36:27.840Z,5128.00
2022-08-14T07:37:24.621Z,5104.00
2022-08-14T07:39:29.153Z,5092.00
2022-08-14T07:40:29.887Z,5084.00
2022-08-14T07:42:32.721Z,5092.00
2022-08-14T07:43:32.748Z,5080.00
2022-08-14T07:45:38.076Z,5072.00
2022-08-14T07:46:36.812Z,5068.00
2022-08-14T07:48:41.321Z,5020.00
2022-08-14T07:49:40.914Z,5016.00
2022-08-14T07:51:45.381Z,5000.00
2022-08-14T07:52:45.002Z,5000.00
2022-08-14T07:54:49.433Z,4984.00
2022-08-14T07:56:00.365Z,4960.00
2022-08-14T07:57:41.960Z,4964.00
2022-08-14T07:58:51.284Z,4960.00
2022-08-14T08:00:46.465Z,4948.00
2022-08-14T08:01:47.943Z,4948.00
2022-08-14T08:03:51.968Z,4896.00
2022-08-14T08:04:50.077Z,4892.00
2022-08-14T08:06:55.088Z,4884.00
2022-08-14T08:07:54.137Z,4880.00
2022-08-14T08:09:59.718Z,4852.00
2022-08-14T08:11:02.409Z,4840.00
2022-08-14T08:13:02.243Z,4776.00
2022-08-14T08:14:02.261Z,4756.00
2022-08-14T08:16:59.748Z,4652.00
2022-08-14T08:18:01.405Z,4624.00
2022-08-14T08:20:03.740Z,4616.00
2022-08-14T08:21:03.298Z,4620.00
2022-08-14T08:23:08.363Z,4640.00
2022-08-14T08:24:08.366Z,4616.00
2022-08-14T08:26:12.865Z,4572.00
2022-08-14T08:27:12.423Z,4560.00
2022-08-14T08:29:16.457Z,4552.00
2022-08-14T08:30:16.478Z,4536.00
2022-08-14T08:32:20.979Z,4540.00
2022-08-14T08:33:20.538Z,4540.00
2022-08-14T08:35:25.037Z,4568.00
2022-08-14T08:36:24.596Z,4556.00
2022-08-14T08:39:18.701Z,4408.00
2022-08-14T08:39:31.004Z,4372.00
2022-08-14T08:41:33.157Z,4320.00
2022-08-14T08:42:38.636Z,4312.00
2022-08-14T08:44:36.751Z,4324.00
2022-08-14T08:45:36.774Z,4304.00
2022-08-14T08:47:29.761Z,4248.00
2022-08-14T08:48:31.839Z,4252.00
2022-08-14T08:50:55.269Z,4280.00
2022-08-14T08:52:37.808Z,4300.00
2022-08-14T08:53:37.836Z,4312.00
2022-08-14T08:55:42.504Z,4324.00
2022-08-14T08:56:42.112Z,4308.00
2022-08-14T08:58:45.932Z,4316.00
2022-08-14T08:59:45.953Z,4300.00
2022-08-14T09:01:51.507Z,4296.00
2022-08-14T09:02:50.015Z,4324.00
2022-08-14T09:04:54.056Z,4332.00
2022-08-14T09:05:54.367Z,4320.00
2022-08-14T09:07:47.565Z,4304.00
2022-08-14T09:08:47.056Z,4248.00
2022-08-14T09:10:56.262Z,4152.00
2022-08-14T09:11:51.115Z,4144.00
2022-08-14T09:13:55.616Z,4084.00
2022-08-14T09:14:55.174Z,4056.00
2022-08-14T09:17:01.145Z,4012.00
2022-08-14T09:17:59.265Z,4012.00
2022-08-14T09:20:04.126Z,4064.00
2022-08-14T09:21:03.302Z,4096.00
2022-08-14T09:23:07.804Z,4160.00
2022-08-14T09:24:28.093Z,4148.00
2022-08-14T09:26:21.025Z,4072.00
2022-08-14T09:27:16.588Z,4072.00
2022-08-14T09:29:15.920Z,4060.00
2022-08-14T09:30:32.770Z,4048.00
2022-08-14T09:32:59.240Z,3996.00
2022-08-14T09:33:19.536Z,3980.00
2022-08-14T09:35:24.039Z,3972.00
2022-08-14T09:36:23.599Z,3984.00
2022-08-14T09:38:27.630Z,4008.00
2022-08-14T09:39:27.677Z,4012.00
2022-08-14T09:42:17.673Z,4028.00
2022-08-14T09:42:34.046Z,4096.00
2022-08-14T09:44:36.214Z,4184.00
2022-08-14T09:45:39.754Z,4308.00
2022-08-14T09:47:28.729Z,4760.00
2022-08-14T09:48:30.900Z,4888.00
2022-08-14T09:50:33.251Z,4900.00
2022-08-14T09:51:44.854Z,4764.00
2022-08-14T09:54:18.037Z,4712.00
2022-08-14T09:54:36.865Z,4628.00
2022-08-14T09:56:40.912Z,4976.00
2022-08-14T09:57:41.005Z,5344.00
2022-08-14T09:59:45.440Z,5400.00
2022-08-14T10:00:44.998Z,5632.00
2022-08-14T10:02:49.229Z,5132.00
2022-08-14T10:03:49.064Z,5204.00
2022-08-14T10:05:53.570Z,4776.00
2022-08-14T10:06:53.126Z,5096.00
2022-08-14T10:08:57.625Z,4528.00
2022-08-14T10:09:59.943Z,4384.00
2022-08-14T10:12:01.224Z,4116.00
2022-08-14T10:13:01.248Z,4040.00
2022-08-14T10:15:05.750Z,3796.00
2022-08-14T10:16:05.331Z,3708.00
2022-08-14T10:18:09.363Z,3884.00
2022-08-14T10:19:09.800Z,3888.00
2022-08-14T10:21:13.890Z,3920.00
2022-08-14T10:23:14.422Z,3936.00
2022-08-14T10:24:17.746Z,3964.00
2022-08-14T10:25:17.516Z,3996.00
2022-08-14T10:27:11.003Z,3972.00
2022-08-14T10:28:39.202Z,3936.00
2022-08-14T10:30:15.017Z,3864.00
2022-08-14T10:31:14.555Z,3844.00
2022-08-14T10:33:19.050Z,3768.00
2022-08-14T10:34:18.996Z,3812.00
2022-08-14T10:36:34.729Z,3752.00
2022-08-14T10:37:22.971Z,3740.00
2022-08-14T10:39:27.695Z,3800.00
2022-08-14T10:40:38.490Z,3844.00
2022-08-14T10:42:31.236Z,4120.00
2022-08-14T10:43:37.973Z,4308.00
2022-08-14T10:45:35.810Z,4672.00
2022-08-14T10:47:40.875Z,4840.00
2022-08-14T10:48:44.841Z,5508.00
2022-08-14T10:49:39.418Z,5540.00
2022-08-14T10:50:39.451Z,5532.00
2022-08-14T10:51:39.821Z,5076.00
2022-08-14T10:52:43.450Z,4992.00
2022-08-14T10:53:40.066Z,4856.00
2022-08-14T10:54:40.244Z,4708.00
2022-08-14T10:55:39.624Z,4580.00
2022-08-14T10:56:39.658Z,4440.00
2022-08-14T10:57:39.690Z,4420.00
2022-08-14T10:58:39.723Z,4524.00
2022-08-14T10:59:43.169Z,4668.00
2022-08-14T11:00:39.794Z,5120.00
2022-08-14T11:01:41.392Z,5536.00
2022-08-14T11:02:50.293Z,5720.00
2022-08-14T11:03:56.156Z,6328.00
2022-08-14T11:04:39.992Z,6844.00
2022-08-14T11:05:39.965Z,7456.00
2022-08-14T11:06:40.024Z,7788.00
2022-08-14T11:07:40.045Z,7964.00
2022-08-14T11:08:40.072Z,8264.00
2022-08-14T11:09:41.923Z,8308.00
2022-08-14T11:10:42.998Z,7968.00
2022-08-14T11:11:40.172Z,7488.00
2022-08-14T11:12:40.475Z,7204.00
2022-08-14T11:13:40.241Z,6696.00
2022-08-14T11:14:40.283Z,6400.00
2022-08-14T11:15:41.022Z,6124.00
2022-08-14T11:16:40.643Z,5852.00
2022-08-14T11:17:40.382Z,5832.00
2022-08-14T11:18:40.700Z,5800.00
2022-08-14T11:19:40.449Z,5784.00
2022-08-14T11:20:40.487Z,5492.00
2022-08-14T11:21:40.515Z,5420.00
2022-08-14T11:22:52.888Z,5592.00
2022-08-14T11:23:43.878Z,5764.00
2022-08-14T11:24:55.444Z,6096.00
2022-08-14T11:25:43.667Z,6592.00
2022-08-14T11:26:40.697Z,7080.00
2022-08-14T11:27:40.734Z,7176.00
2022-08-14T11:28:46.752Z,6540.00
2022-08-14T11:29:40.801Z,5616.00
2022-08-14T11:30:49.203Z,4936.00
2022-08-14T11:31:40.867Z,4528.00
2022-08-14T11:32:40.942Z,4356.00
2022-08-14T11:33:40.941Z,4332.00
2022-08-14T11:34:40.978Z,4284.00
2022-08-14T11:35:44.272Z,4160.00
2022-08-14T11:37:09.512Z,3968.00
2022-08-14T11:37:41.083Z,3848.00
2022-08-14T11:38:41.118Z,3780.00
2022-08-14T11:39:41.163Z,3856.00
2022-08-14T11:40:41.190Z,4080.00
2022-08-14T11:41:55.524Z,4248.00
2022-08-14T11:42:56.703Z,4476.00
2022-08-14T11:43:41.690Z,4896.00
2022-08-14T11:44:46.240Z,5048.00
2022-08-14T11:45:41.367Z,5660.00
2022-08-14T11:46:41.397Z,6772.00
2022-08-14T11:47:44.210Z,7544.00
2022-08-14T11:49:03.697Z,7776.00
2022-08-14T11:49:41.502Z,7304.00
2022-08-14T11:50:41.538Z,6196.00
2022-08-14T11:51:54.428Z,5224.00
2022-08-14T11:52:41.628Z,4652.00
2022-08-14T11:53:41.926Z,4332.00
2022-08-14T11:54:41.677Z,4116.00
2022-08-14T11:55:41.719Z,4016.00
2022-08-14T11:56:41.752Z,3956.00
2022-08-14T11:57:41.809Z,3916.00
2022-08-14T11:58:42.429Z,3932.00
2022-08-14T11:59:44.295Z,3960.00
2022-08-14T12:00:46.172Z,4004.00
2022-08-14T12:01:41.934Z,4056.00
2022-08-14T12:03:03.096Z,4120.00
2022-08-14T12:03:51.385Z,4208.00
2022-08-14T12:04:42.100Z,4260.00
2022-08-14T12:05:42.071Z,4172.00
2022-08-14T12:06:42.101Z,3992.00
2022-08-14T12:07:42.931Z,3940.00
2022-08-14T12:08:42.173Z,4020.00
2022-08-14T12:09:42.900Z,3892.00
2022-08-14T12:10:42.779Z,3980.00
2022-08-14T12:11:43.811Z,4244.00
2022-08-14T12:12:42.332Z,4476.00
2022-08-14T12:13:44.411Z,4688.00
2022-08-14T12:14:44.360Z,4576.00
2022-08-14T12:15:45.033Z,4488.00
2022-08-14T12:16:42.457Z,4636.00
2022-08-14T12:17:47.530Z,4808.00
2022-08-14T12:18:42.523Z,4888.00
2022-08-14T12:19:42.558Z,5388.00
2022-08-14T12:20:45.944Z,5480.00
2022-08-14T12:21:46.561Z,5384.00
2022-08-14T12:22:43.117Z,5680.00
2022-08-14T12:23:42.704Z,6240.00
2022-08-14T12:24:42.741Z,6888.00
2022-08-14T12:25:42.785Z,7504.00
2022-08-14T12:26:42.808Z,7404.00
2022-08-14T12:27:52.429Z,6620.00
2022-08-14T12:28:59.951Z,5640.00
2022-08-14T12:29:42.910Z,4624.00
2022-08-14T12:30:43.774Z,3980.00
2022-08-14T12:31:44.721Z,3588.00
2022-08-14T12:32:43.017Z,3436.00
2022-08-14T12:33:46.827Z,3484.00
2022-08-14T12:34:45.132Z,3464.00
2022-08-14T12:35:43.123Z,3892.00
2022-08-14T12:36:43.162Z,4296.00
2022-08-14T12:37:43.194Z,4668.00
2022-08-14T12:38:43.742Z,4720.00
2022-08-14T12:39:43.290Z,4832.00
2022-08-14T12:40:43.304Z,4932.00
2022-08-14T12:41:43.340Z,5100.00
2022-08-14T12:42:47.599Z,5248.00
2022-08-14T12:43:43.407Z,5756.00
2022-08-14T12:44:43.442Z,5704.00
2022-08-14T12:45:43.484Z,4752.00
2022-08-14T12:46:46.899Z,4192.00
2022-08-14T12:47:43.554Z,4064.00
2022-08-14T12:48:43.588Z,4268.00
2022-08-14T12:49:43.621Z,4572.00
2022-08-14T12:50:43.660Z,4792.00
2022-08-14T12:51:43.698Z,4856.00
2022-08-14T12:53:01.941Z,4872.00
2022-08-14T12:53:43.764Z,4976.00
2022-08-14T12:55:01.411Z,4952.00
2022-08-14T12:56:17.580Z,5244.00
2022-08-14T12:56:43.872Z,5700.00
2022-08-14T12:57:43.908Z,6276.00
2022-08-14T12:58:51.934Z,7160.00
2022-08-14T12:59:43.978Z,7508.00
2022-08-14T13:00:59.245Z,7584.00
2022-08-14T13:01:59.789Z,7548.00
2022-08-14T13:02:44.138Z,7144.00
2022-08-14T13:03:44.118Z,7000.00
2022-08-14T13:04:44.161Z,7064.00
2022-08-14T13:05:44.190Z,7416.00
2022-08-14T13:06:44.229Z,7636.00
2022-08-14T13:07:45.794Z,7896.00
2022-08-14T13:08:53.017Z,8000.00
2022-08-14T13:09:44.341Z,8064.00
2022-08-14T13:10:47.030Z,7828.00
2022-08-14T13:11:44.849Z,7720.00
2022-08-14T13:13:10.086Z,7256.00
2022-08-14T13:13:44.728Z,6480.00
2022-08-14T13:14:44.515Z,5976.00
2022-08-14T13:15:44.551Z,5432.00
2022-08-14T13:16:44.586Z,5212.00
2022-08-14T13:17:44.624Z,5064.00
2022-08-14T13:18:46.675Z,5028.00
2022-08-14T13:19:44.691Z,4976.00
2022-08-14T13:20:49.445Z,4972.00
2022-08-14T13:22:04.779Z,4992.00
2022-08-14T13:22:44.864Z,4936.00
2022-08-14T13:23:45.381Z,4796.00
2022-08-14T13:24:44.893Z,4728.00
2022-08-14T13:25:55.573Z,4956.00
2022-08-14T13:26:44.947Z,5348.00
2022-08-14T13:27:44.981Z,5868.00
2022-08-14T13:29:02.551Z,6004.00
2022-08-14T13:29:47.149Z,6188.00
2022-08-14T13:30:45.088Z,6168.00
2022-08-14T13:31:45.128Z,5808.00
2022-08-14T13:32:45.391Z,5272.00
2022-08-14T13:33:45.198Z,4820.00
2022-08-14T13:34:45.573Z,4436.00
2022-08-14T13:35:45.271Z,4208.00
2022-08-14T13:36:55.006Z,3996.00
2022-08-14T13:37:45.473Z,3896.00
2022-08-14T13:38:45.377Z,3940.00
2022-08-14T13:39:45.460Z,4176.00
2022-08-14T13:40:45.451Z,4428.00
2022-08-14T13:41:45.489Z,4572.00
2022-08-14T13:42:45.682Z,4772.00
2022-08-14T13:43:49.271Z,4796.00
2022-08-14T13:44:45.598Z,4704.00
2022-08-14T13:46:00.655Z,4480.00
2022-08-14T13:46:45.977Z,4416.00
2022-08-14T13:47:46.689Z,4384.00
2022-08-14T13:48:45.742Z,4228.00
2022-08-14T13:49:57.634Z,3924.00
2022-08-14T13:50:45.812Z,3720.00
2022-08-14T13:51:45.856Z,3596.00
2022-08-14T13:52:51.931Z,3540.00
2022-08-14T13:54:07.028Z,3720.00
2022-08-14T13:54:45.958Z,3944.00
2022-08-14T13:55:45.995Z,4076.00
2022-08-14T13:56:46.027Z,4324.00
2022-08-14T13:57:49.712Z,4380.00
2022-08-14T13:58:46.904Z,4232.00
2022-08-14T13:59:46.136Z,3900.00
2022-08-14T14:00:53.286Z,3784.00
2022-08-14T14:01:46.234Z,3828.00
2022-08-14T14:02:46.569Z,3800.00
2022-08-14T14:03:46.283Z,3760.00
2022-08-14T14:04:49.553Z,3756.00
2022-08-14T14:05:53.383Z,3768.00
2022-08-14T14:06:46.388Z,3776.00
2022-08-14T14:07:46.420Z,3764.00
2022-08-14T14:08:47.917Z,3748.00
2022-08-14T14:09:52.638Z,3740.00
2022-08-14T14:10:46.536Z,3772.00
2022-08-14T14:11:46.569Z,3788.00
2022-08-14T14:12:56.389Z,3744.00
2022-08-14T14:13:46.682Z,3712.00
2022-08-14T14:14:51.796Z,3712.00
2022-08-14T14:15:57.724Z,3708.00
2022-08-14T14:16:46.748Z,3700.00
2022-08-14T14:17:46.812Z,3700.00
2022-08-14T14:18:46.817Z,3740.00
2022-08-14T14:19:46.854Z,3848.00
2022-08-14T14:20:46.888Z,4172.00
2022-08-14T14:21:46.924Z,4396.00
2022-08-14T14:23:02.327Z,4372.00
2022-08-14T14:23:46.996Z,4196.00
2022-08-14T14:24:47.034Z,4080.00
2022-08-14T14:25:51.089Z,3888.00
2022-08-14T14:26:47.104Z,3772.00
2022-08-14T14:27:47.136Z,3752.00
2022-08-14T14:28:47.174Z,3708.00
2022-08-14T14:29:50.664Z,3692.00
2022-08-14T14:30:53.056Z,3724.00
2022-08-14T14:31:47.296Z,3688.00
2022-08-14T14:33:02.218Z,3716.00
2022-08-14T14:33:48.776Z,3720.00
2022-08-14T14:34:47.543Z,3736.00